createdAt,value
2017-12-28T00:02:07.769Z,4.10
2017-12-28T00:04:41.534Z,4.00
2017-12-28T00:07:16.829Z,4.00
2017-12-28T00:09:50.784Z,3.90
2017-12-28T00:12:25.444Z,4.00
2017-12-28T00:15:01.198Z,4.10
2017-12-28T00:17:36.028Z,4.10
2017-12-28T00:20:09.787Z,4.20
2017-12-28T00:22:45.133Z,4.30
2017-12-28T00:25:18.929Z,4.30
2017-12-28T00:27:52.812Z,4.30
2017-12-28T00:30:27.372Z,4.30
2017-12-28T00:33:01.172Z,4.30
2017-12-28T00:35:35.898Z,4.30
2017-12-28T00:38:09.633Z,4.30
2017-12-28T00:40:43.439Z,4.30
2017-12-28T00:43:18.682Z,4.30
2017-12-28T00:45:53.323Z,4.40
2017-12-28T00:48:27.944Z,4.40
2017-12-28T00:51:01.608Z,4.50
2017-12-28T00:53:35.319Z,4.50
2017-12-28T00:56:10.971Z,4.50
2017-12-28T00:58:44.662Z,4.50
2017-12-28T01:01:18.262Z,4.50
2017-12-28T01:03:52.099Z,4.50
2017-12-28T01:06:26.699Z,4.60
2017-12-28T01:09:00.405Z,4.50
2017-12-28T01:11:34.262Z,4.50
2017-12-28T01:14:08.057Z,4.40
2017-12-28T01:16:42.787Z,4.30
2017-12-28T01:19:16.652Z,4.20
2017-12-28T01:21:50.292Z,4.10
2017-12-28T01:24:24.029Z,4.00
2017-12-28T01:26:58.606Z,3.90
2017-12-28T01:29:32.375Z,3.90
2017-12-28T01:32:06.198Z,3.90
2017-12-28T01:34:40.703Z,4.10
2017-12-28T01:37:14.515Z,4.10
2017-12-28T01:39:48.368Z,4.20
2017-12-28T01:42:22.063Z,4.30
2017-12-28T01:44:56.649Z,4.40
2017-12-28T01:47:30.328Z,4.40
2017-12-28T01:50:04.193Z,4.50
2017-12-28T01:52:37.968Z,4.60
2017-12-28T01:55:11.878Z,4.60
2017-12-28T01:57:45.659Z,4.70
2017-12-28T02:00:19.453Z,4.70
2017-12-28T02:02:54.250Z,4.80
2017-12-28T02:05:28.064Z,4.80
2017-12-28T02:08:01.847Z,4.90
2017-12-28T02:10:35.632Z,4.90
2017-12-28T02:13:09.521Z,5.10
2017-12-28T02:15:43.969Z,5.10
2017-12-28T02:18:18.459Z,5.10
2017-12-28T02:20:52.278Z,5.10
2017-12-28T02:23:26.092Z,5.00
2017-12-28T02:25:59.903Z,4.70
2017-12-28T02:28:34.476Z,4.50
2017-12-28T02:31:08.271Z,4.40
2017-12-28T02:33:42.044Z,4.40
2017-12-28T02:36:16.713Z,4.20
2017-12-28T02:38:50.379Z,4.20
2017-12-28T02:41:24.552Z,4.10
2017-12-28T02:43:58.228Z,4.10
2017-12-28T02:46:32.056Z,4.10
2017-12-28T02:49:06.576Z,4.10
2017-12-28T02:51:40.331Z,4.10
2017-12-28T02:54:14.138Z,4.10
2017-12-28T02:56:48.748Z,4.10
2017-12-28T02:59:22.557Z,4.10
2017-12-28T03:01:56.297Z,4.10
2017-12-28T03:04:30.064Z,4.10
2017-12-28T03:07:04.628Z,4.10
2017-12-28T03:09:38.236Z,4.10
2017-12-28T03:12:12.074Z,4.00
2017-12-28T03:14:45.841Z,4.00
2017-12-28T03:17:19.736Z,4.00
2017-12-28T03:19:54.215Z,4.00
2017-12-28T03:22:28.092Z,4.00
2017-12-28T03:25:01.888Z,4.00
2017-12-28T03:27:35.629Z,4.00
2017-12-28T03:30:10.173Z,4.10
2017-12-28T03:32:43.974Z,4.10
2017-12-28T03:35:17.658Z,4.10
2017-12-28T03:37:51.485Z,4.00
2017-12-28T03:40:25.168Z,4.00
2017-12-28T03:42:58.879Z,4.10
2017-12-28T03:45:32.662Z,4.10
2017-12-28T03:48:06.476Z,4.00
2017-12-28T03:50:40.288Z,4.10
2017-12-28T03:53:15.094Z,4.10
2017-12-28T03:55:48.937Z,4.00
2017-12-28T03:58:22.743Z,4.00
2017-12-28T04:00:56.592Z,4.00
2017-12-28T04:03:30.323Z,4.00
2017-12-28T04:06:05.103Z,4.00
2017-12-28T04:08:38.858Z,4.00
2017-12-28T04:11:12.712Z,4.00
2017-12-28T04:13:46.497Z,4.00
2017-12-28T04:16:20.268Z,3.90
2017-12-28T04:18:53.981Z,3.90
2017-12-28T04:21:27.774Z,3.90
2017-12-28T04:24:01.478Z,3.90
2017-12-28T04:26:35.078Z,3.80
2017-12-28T04:29:08.851Z,3.80
2017-12-28T04:31:42.573Z,3.70
2017-12-28T04:34:32.284Z,3.60
2017-12-28T04:37:06.056Z,3.60
2017-12-28T04:39:39.843Z,3.60
2017-12-28T04:42:14.327Z,3.50
2017-12-28T04:44:48.151Z,3.50
2017-12-28T04:50:28.703Z,3.30
2017-12-28T04:53:02.565Z,3.30
2017-12-28T04:55:36.365Z,3.30
2017-12-28T04:58:10.129Z,3.30
2017-12-28T05:00:43.922Z,3.30
2017-12-28T05:03:17.731Z,3.30
2017-12-28T05:05:51.535Z,3.30
2017-12-28T05:08:26.375Z,3.30
2017-12-28T05:11:01.031Z,3.20
2017-12-28T05:13:34.838Z,3.20
2017-12-28T05:16:08.542Z,3.20
2017-12-28T05:18:42.364Z,3.10
2017-12-28T05:21:15.957Z,3.10
2017-12-28T05:23:49.713Z,3.10
2017-12-28T05:26:23.528Z,3.00
2017-12-28T05:28:57.332Z,3.00
2017-12-28T05:31:31.132Z,3.00
2017-12-28T05:34:04.886Z,3.00
2017-12-28T05:36:39.435Z,3.00
2017-12-28T05:39:13.822Z,3.00
2017-12-28T05:41:47.447Z,3.00
2017-12-28T05:44:22.017Z,3.00
2017-12-28T05:46:56.678Z,2.90
2017-12-28T05:49:31.839Z,2.90
2017-12-28T05:52:05.513Z,3.00
2017-12-28T05:54:39.504Z,3.00
2017-12-28T05:57:13.285Z,3.10
2017-12-28T05:59:47.138Z,3.10
2017-12-28T06:02:20.952Z,3.10
2017-12-28T06:04:56.309Z,3.00
2017-12-28T06:07:30.120Z,3.10
2017-12-28T06:10:03.917Z,3.10
2017-12-28T06:12:37.676Z,3.10
2017-12-28T06:15:11.445Z,3.10
2017-12-28T06:17:46.053Z,3.10
2017-12-28T06:20:19.904Z,3.20
2017-12-28T06:22:53.768Z,3.20
2017-12-28T06:25:27.626Z,3.20
2017-12-28T06:28:01.479Z,3.20
2017-12-28T06:30:35.183Z,3.20
2017-12-28T06:33:09.700Z,3.20
2017-12-28T06:35:44.290Z,3.10
2017-12-28T06:38:17.936Z,3.10
2017-12-28T06:40:51.695Z,3.10
2017-12-28T06:43:25.449Z,3.00
2017-12-28T06:45:59.216Z,2.90
2017-12-28T06:48:32.960Z,3.00
2017-12-28T06:51:06.760Z,2.90
2017-12-28T06:53:40.558Z,2.90
2017-12-28T06:56:14.430Z,2.90
2017-12-28T06:58:48.952Z,2.90
2017-12-28T07:01:22.811Z,3.00
2017-12-28T07:03:56.570Z,3.00
2017-12-28T07:06:30.388Z,3.00
2017-12-28T07:09:04.715Z,3.00
2017-12-28T07:11:39.296Z,3.00
2017-12-28T07:14:13.922Z,3.00
2017-12-28T07:16:47.664Z,2.90
2017-12-28T07:19:21.459Z,2.90
2017-12-28T07:21:56.244Z,2.80
2017-12-28T07:24:32.013Z,2.80
2017-12-28T07:27:05.842Z,2.80
2017-12-28T07:29:40.368Z,2.80
2017-12-28T07:32:14.192Z,2.70
2017-12-28T07:34:48.000Z,2.70
2017-12-28T07:37:21.868Z,2.80
2017-12-28T07:39:55.581Z,2.80
2017-12-28T07:42:29.388Z,2.90
2017-12-28T07:45:02.929Z,3.00
2017-12-28T07:47:36.788Z,3.00
2017-12-28T07:50:12.227Z,3.00
2017-12-28T07:52:45.910Z,3.00
2017-12-28T07:55:19.740Z,3.10
2017-12-28T07:57:53.418Z,3.00
2017-12-28T08:00:28.967Z,3.10
2017-12-28T08:03:02.719Z,3.10
2017-12-28T08:05:36.412Z,3.10
2017-12-28T08:08:10.215Z,3.00
2017-12-28T08:10:44.764Z,3.00
2017-12-28T08:13:18.509Z,3.00
2017-12-28T08:15:52.298Z,3.00
2017-12-28T08:18:26.320Z,3.00
2017-12-28T08:21:00.182Z,3.00
2017-12-28T08:23:33.992Z,3.00
2017-12-28T08:26:07.800Z,3.00
2017-12-28T08:28:41.584Z,3.00
2017-12-28T08:31:15.392Z,3.00
2017-12-28T08:33:49.833Z,3.00
2017-12-28T08:36:25.996Z,3.10
2017-12-28T08:38:59.783Z,3.10
2017-12-28T08:41:33.646Z,3.10
2017-12-28T08:44:07.400Z,3.10
2017-12-28T08:46:41.157Z,3.10
2017-12-28T08:49:15.667Z,3.10
2017-12-28T08:51:49.388Z,3.10
2017-12-28T08:54:23.126Z,3.10
2017-12-28T08:56:56.966Z,3.10
2017-12-28T08:59:30.741Z,3.10
2017-12-28T09:02:04.611Z,3.20
2017-12-28T09:04:38.444Z,3.20
2017-12-28T09:07:13.066Z,3.20
2017-12-28T09:09:46.745Z,3.20
2017-12-28T09:12:20.487Z,3.20
2017-12-28T09:14:54.312Z,3.20
2017-12-28T09:17:28.113Z,3.30
2017-12-28T09:20:01.810Z,3.30
2017-12-28T09:22:35.703Z,3.40
2017-12-28T09:25:09.324Z,3.40
2017-12-28T09:27:43.085Z,3.40
2017-12-28T09:30:17.696Z,3.40
2017-12-28T09:32:51.241Z,3.50
2017-12-28T09:35:25.085Z,3.50
2017-12-28T09:37:58.888Z,3.50
2017-12-28T09:40:32.753Z,3.60
2017-12-28T09:43:06.546Z,3.60
2017-12-28T09:45:40.205Z,3.70
2017-12-28T09:48:13.847Z,3.80
2017-12-28T09:50:47.617Z,3.80
2017-12-28T09:53:21.357Z,3.90
2017-12-28T09:55:55.140Z,3.90
2017-12-28T09:58:28.994Z,3.90
2017-12-28T10:01:03.515Z,4.10
2017-12-28T10:03:38.040Z,4.10
2017-12-28T10:06:11.837Z,4.10
2017-12-28T10:08:45.758Z,4.10
2017-12-28T10:11:19.442Z,4.10
2017-12-28T10:13:54.698Z,4.20
2017-12-28T10:16:29.125Z,4.30
2017-12-28T10:19:03.584Z,4.30
2017-12-28T10:21:37.340Z,4.30
2017-12-28T10:24:11.942Z,4.30
2017-12-28T10:26:46.457Z,4.30
2017-12-28T10:29:20.235Z,4.30
2017-12-28T10:31:54.033Z,4.20
2017-12-28T10:34:28.014Z,4.30
2017-12-28T10:37:03.218Z,4.20
2017-12-28T10:39:37.026Z,4.20
2017-12-28T10:42:11.579Z,4.50
2017-12-28T10:44:45.377Z,4.40
2017-12-28T10:47:19.210Z,4.40
2017-12-28T10:49:52.932Z,4.50
2017-12-28T10:52:26.722Z,4.60
2017-12-28T10:55:00.569Z,4.50
2017-12-28T10:57:34.283Z,4.60
2017-12-28T11:00:08.622Z,4.60
2017-12-28T11:02:42.431Z,4.50
2017-12-28T11:05:16.924Z,4.60
2017-12-28T11:07:50.526Z,4.50
2017-12-28T11:10:24.216Z,4.50
2017-12-28T11:12:58.025Z,4.60
2017-12-28T11:15:31.776Z,4.60
2017-12-28T11:18:05.536Z,4.60
2017-12-28T11:20:39.208Z,4.50
2017-12-28T11:23:12.984Z,4.50
2017-12-28T11:25:46.668Z,4.50
2017-12-28T11:28:21.216Z,4.50
2017-12-28T11:30:54.831Z,4.50
2017-12-28T11:33:29.076Z,4.50
2017-12-28T11:36:02.760Z,4.50
2017-12-28T11:38:36.540Z,4.50
2017-12-28T11:53:16.782Z,4.80
2017-12-28T11:56:05.448Z,4.80
2017-12-28T11:58:52.452Z,4.70
2017-12-28T12:01:35.931Z,4.90
2017-12-28T12:04:12.267Z,4.90
2017-12-28T12:07:07.808Z,4.80
2017-12-28T12:09:49.397Z,4.80
2017-12-28T12:12:24.046Z,4.70
2017-12-28T12:15:01.018Z,4.60
2017-12-28T12:17:35.095Z,4.80
2017-12-28T12:20:08.950Z,4.80
2017-12-28T12:22:44.632Z,4.90
2017-12-28T12:25:21.285Z,4.90
2017-12-28T12:27:56.564Z,4.90
2017-12-28T12:30:30.457Z,4.80
2017-12-28T12:33:05.067Z,4.70
2017-12-28T12:35:43.583Z,4.70
2017-12-28T12:38:18.975Z,4.70
2017-12-28T12:40:52.732Z,4.80
2017-12-28T12:43:26.538Z,4.70
2017-12-28T12:46:00.308Z,4.70
2017-12-28T12:48:34.977Z,4.70
2017-12-28T12:51:08.767Z,4.70
2017-12-28T12:53:42.572Z,4.80
2017-12-28T12:56:16.340Z,4.80
2017-12-28T12:58:50.169Z,4.80
2017-12-28T13:01:24.704Z,4.70
2017-12-28T13:03:59.026Z,4.70
2017-12-28T13:06:33.519Z,4.40
2017-12-28T13:09:07.250Z,4.40
2017-12-28T13:11:41.809Z,4.30
2017-12-28T13:14:16.464Z,4.30
2017-12-28T13:16:53.176Z,4.30
2017-12-28T13:19:26.982Z,4.30
2017-12-28T13:22:00.837Z,4.30
2017-12-28T13:24:34.567Z,4.30
2017-12-28T13:27:08.298Z,4.60
2017-12-28T13:29:42.962Z,4.90
2017-12-28T13:32:16.650Z,4.80
2017-12-28T13:34:52.938Z,4.80
2017-12-28T13:37:27.719Z,4.80
2017-12-28T13:40:01.509Z,4.80
2017-12-28T13:42:36.766Z,4.90
2017-12-28T13:45:10.472Z,5.00
2017-12-28T13:47:44.327Z,5.00
2017-12-28T13:50:18.920Z,4.70
2017-12-28T13:52:52.625Z,4.70
2017-12-28T13:55:27.084Z,4.70
2017-12-28T13:58:00.702Z,4.70
2017-12-28T14:00:34.563Z,4.60
2017-12-28T14:03:09.147Z,4.50
2017-12-28T14:05:42.970Z,4.50
2017-12-28T14:08:16.733Z,4.60
2017-12-28T14:10:50.580Z,4.80
2017-12-28T14:13:24.377Z,4.80
2017-12-28T14:15:58.092Z,4.80
2017-12-28T14:18:31.896Z,4.70
2017-12-28T14:21:05.680Z,4.60
2017-12-28T14:23:39.524Z,4.60
2017-12-28T14:26:14.092Z,5.50
2017-12-28T14:28:47.789Z,5.50
2017-12-28T14:31:21.516Z,5.40
2017-12-28T14:33:55.359Z,5.10
2017-12-28T14:36:29.216Z,4.80
2017-12-28T14:39:03.876Z,4.70
2017-12-28T14:41:37.680Z,4.60
2017-12-28T14:44:11.609Z,5.00
2017-12-28T14:46:45.424Z,4.90
2017-12-28T14:49:19.956Z,4.70
2017-12-28T14:51:53.521Z,4.70
2017-12-28T14:54:27.429Z,4.40
2017-12-28T14:57:01.226Z,4.20
2017-12-28T14:59:35.875Z,4.10
2017-12-28T15:02:09.659Z,4.10
2017-12-28T15:04:44.296Z,4.10
2017-12-28T15:07:18.678Z,4.10
2017-12-28T15:09:52.318Z,4.00
2017-12-28T15:12:27.033Z,4.00
2017-12-28T15:15:00.766Z,4.00
2017-12-28T15:17:34.560Z,4.00
2017-12-28T15:20:09.160Z,4.00
2017-12-28T15:22:42.963Z,4.00
2017-12-28T15:25:16.807Z,4.00
2017-12-28T15:27:50.616Z,4.00
2017-12-28T15:30:25.187Z,4.00
2017-12-28T15:32:58.992Z,4.00
2017-12-28T15:35:32.753Z,3.90
2017-12-28T15:38:06.513Z,3.90
2017-12-28T15:40:40.262Z,3.90
2017-12-28T15:43:14.116Z,4.00
2017-12-28T15:45:48.647Z,4.00
2017-12-28T15:48:22.350Z,4.00
2017-12-28T15:50:56.965Z,4.00
2017-12-28T15:53:30.903Z,4.00
2017-12-28T15:56:05.394Z,4.00
2017-12-28T15:58:39.388Z,4.10
2017-12-28T16:01:13.912Z,4.10
2017-12-28T16:03:48.582Z,4.10
2017-12-28T16:06:23.174Z,4.10
2017-12-28T16:08:57.732Z,4.10
2017-12-28T16:11:31.406Z,4.10
2017-12-28T16:14:05.004Z,4.10
2017-12-28T16:16:38.749Z,4.10
2017-12-28T16:19:13.376Z,4.10
2017-12-28T16:24:27.274Z,4.10
2017-12-28T16:27:01.040Z,4.10
2017-12-28T16:29:34.840Z,4.10
2017-12-28T16:32:10.666Z,4.10
2017-12-28T16:34:44.422Z,4.10
2017-12-28T16:37:19.115Z,4.00
2017-12-28T16:39:52.969Z,4.00
2017-12-28T16:42:26.692Z,4.10
2017-12-28T16:45:01.267Z,4.10
2017-12-28T16:47:35.060Z,4.10
2017-12-28T16:50:09.681Z,3.90
2017-12-28T16:52:43.281Z,3.90
2017-12-28T16:55:17.032Z,3.70
2017-12-28T16:57:50.934Z,3.50
2017-12-28T17:00:24.699Z,3.20
2017-12-28T17:02:58.425Z,3.20
2017-12-28T17:05:32.325Z,3.10
2017-12-28T17:08:06.189Z,3.00
2017-12-28T17:10:39.996Z,2.90
2017-12-28T17:13:14.704Z,2.90
2017-12-28T17:15:48.471Z,3.00
2017-12-28T17:18:22.216Z,2.90
2017-12-28T17:20:55.892Z,3.00
2017-12-28T17:23:29.749Z,3.00
2017-12-28T17:26:04.408Z,3.00
2017-12-28T17:28:38.043Z,3.00
2017-12-28T17:31:11.693Z,3.10
2017-12-28T17:33:46.331Z,3.10
2017-12-28T17:36:20.914Z,3.10
2017-12-28T17:38:54.660Z,3.10
2017-12-28T17:41:28.508Z,3.10
2017-12-28T17:44:03.256Z,3.10
2017-12-28T17:46:37.072Z,3.10
2017-12-28T17:49:11.739Z,3.00
2017-12-28T17:51:45.492Z,3.00
2017-12-28T17:54:19.278Z,3.10
2017-12-28T17:56:53.248Z,3.00
2017-12-28T17:59:26.808Z,3.00
2017-12-28T18:02:00.521Z,3.00
2017-12-28T18:04:34.304Z,3.00
2017-12-28T18:07:07.923Z,3.00
2017-12-28T18:09:42.630Z,3.00
2017-12-28T18:15:20.352Z,3.00
2017-12-28T18:17:54.087Z,3.00
2017-12-28T18:20:27.855Z,3.00
2017-12-28T18:23:01.616Z,3.00
2017-12-28T18:25:36.152Z,3.00
2017-12-28T18:31:13.371Z,3.00
2017-12-28T18:33:47.168Z,3.00
2017-12-28T18:36:20.999Z,3.00
2017-12-28T18:38:54.805Z,3.00
2017-12-28T18:41:28.580Z,3.10
2017-12-28T18:44:02.440Z,3.10
2017-12-28T18:46:36.191Z,3.20
2017-12-28T18:49:09.902Z,3.20
2017-12-28T18:51:45.016Z,3.20
2017-12-28T18:54:18.798Z,3.20
2017-12-28T18:56:52.641Z,3.20
2017-12-28T18:59:26.396Z,3.20
2017-12-28T19:02:00.269Z,3.30
2017-12-28T19:04:33.997Z,3.30
2017-12-28T19:07:07.970Z,3.30
2017-12-28T19:09:41.845Z,3.40
2017-12-28T19:12:15.599Z,3.40
2017-12-28T19:14:49.257Z,3.40
2017-12-28T19:17:23.784Z,3.40
2017-12-28T19:19:57.584Z,3.30
2017-12-28T19:22:32.043Z,3.40
2017-12-28T19:25:05.709Z,3.30
2017-12-28T19:27:39.393Z,3.40
2017-12-28T19:30:13.193Z,3.40
2017-12-28T19:32:47.616Z,3.40
2017-12-28T19:35:21.383Z,3.40
2017-12-28T19:37:55.162Z,3.40
2017-12-28T19:40:29.660Z,3.40
2017-12-28T19:43:03.385Z,3.40
2017-12-28T19:45:36.963Z,3.50
2017-12-28T19:48:10.788Z,3.50
2017-12-28T19:50:45.294Z,3.50
2017-12-28T19:53:19.063Z,3.40
2017-12-28T19:55:53.622Z,3.50
2017-12-28T19:58:27.487Z,3.40
2017-12-28T20:01:01.100Z,3.50
2017-12-28T20:03:35.990Z,3.50
2017-12-28T20:06:09.683Z,3.40
2017-12-28T20:08:44.311Z,3.50
2017-12-28T20:11:18.814Z,3.50
2017-12-28T20:13:53.424Z,3.50
2017-12-28T20:16:27.173Z,3.50
2017-12-28T20:19:00.888Z,3.50
2017-12-28T20:21:34.579Z,3.50
2017-12-28T20:24:08.160Z,3.50
2017-12-28T20:26:41.778Z,3.50
2017-12-28T20:29:15.501Z,3.50
2017-12-28T20:31:49.981Z,3.50
2017-12-28T20:34:23.729Z,3.40
2017-12-28T20:36:57.614Z,3.50
2017-12-28T20:39:31.424Z,3.40
2017-12-28T20:42:05.166Z,3.50
2017-12-28T20:44:38.993Z,3.50
2017-12-28T20:47:12.581Z,3.50
2017-12-28T20:49:46.456Z,3.50
2017-12-28T20:52:20.289Z,3.50
2017-12-28T20:54:54.270Z,3.50
2017-12-28T20:57:27.931Z,3.50
2017-12-28T21:00:01.772Z,3.50
2017-12-28T21:02:35.474Z,3.50
2017-12-28T21:05:09.208Z,3.40
2017-12-28T21:07:42.882Z,3.40
2017-12-28T21:10:16.812Z,3.40
2017-12-28T21:12:50.555Z,3.40
2017-12-28T21:15:24.302Z,3.40
2017-12-28T21:17:58.125Z,3.40
2017-12-28T21:20:31.916Z,3.40
2017-12-28T21:23:06.521Z,3.40
2017-12-28T21:25:40.227Z,3.40
2017-12-28T21:28:14.025Z,3.40
2017-12-28T21:30:47.743Z,3.40
2017-12-28T21:33:22.296Z,3.40
2017-12-28T21:35:56.745Z,3.40
2017-12-28T21:38:31.887Z,3.40
2017-12-28T21:41:05.747Z,3.40
2017-12-28T21:43:39.563Z,3.40
2017-12-28T21:46:14.307Z,3.40
2017-12-28T21:48:48.904Z,3.40
2017-12-28T21:51:22.509Z,3.30
2017-12-28T21:53:56.362Z,3.40
2017-12-28T21:56:30.136Z,3.40
2017-12-28T21:59:03.914Z,3.40
2017-12-28T22:01:37.555Z,3.40
2017-12-28T22:04:12.148Z,3.40
2017-12-28T22:06:46.270Z,3.40
2017-12-28T22:09:20.142Z,3.40
2017-12-28T22:11:53.979Z,3.40
2017-12-28T22:14:27.759Z,3.40
2017-12-28T22:17:02.180Z,3.40
2017-12-28T22:19:37.778Z,3.40
2017-12-28T22:22:11.586Z,3.40
2017-12-28T22:24:46.181Z,3.40
2017-12-28T22:27:19.942Z,3.40
2017-12-28T22:29:56.169Z,3.40
2017-12-28T22:32:30.021Z,3.40
2017-12-28T22:35:03.590Z,3.40
2017-12-28T22:37:38.189Z,3.40
2017-12-28T22:40:12.904Z,3.40
2017-12-28T22:42:47.559Z,3.40
2017-12-28T22:45:21.256Z,3.40
2017-12-28T22:47:55.075Z,3.50
2017-12-28T22:50:29.567Z,3.50
2017-12-28T22:53:03.264Z,3.50
2017-12-28T22:55:36.981Z,3.50
2017-12-28T22:58:11.521Z,3.50
2017-12-28T23:00:45.292Z,3.50
2017-12-28T23:03:18.916Z,3.50
2017-12-28T23:05:52.691Z,3.50
2017-12-28T23:08:26.367Z,3.50
2017-12-28T23:11:00.897Z,3.50
2017-12-28T23:13:34.557Z,3.50
2017-12-28T23:16:08.214Z,3.50
2017-12-28T23:18:41.970Z,3.50
2017-12-28T23:21:16.672Z,3.50
2017-12-28T23:23:50.334Z,3.50
2017-12-28T23:26:24.310Z,3.40
2017-12-28T23:28:58.976Z,3.40
2017-12-28T23:31:32.576Z,3.40
2017-12-28T23:34:06.649Z,3.40
2017-12-28T23:36:41.274Z,3.40
2017-12-28T23:39:16.801Z,3.40
2017-12-28T23:41:50.423Z,3.30
2017-12-28T23:44:25.156Z,3.30
2017-12-28T23:46:58.828Z,3.30
2017-12-28T23:49:33.433Z,3.40
2017-12-28T23:52:07.997Z,3.30
2017-12-28T23:54:42.534Z,3.40
2017-12-28T23:57:17.748Z,3.40
2017-12-28T23:59:51.463Z,3.30
